Time;durP1;ratioP1;P1;durP2;ratioP2;P2;SDS_P1;SDS_P2;PMS_P1;PMS_P2;Temp;Humidity;BMP_temperature;BMP_pressure;BME280_temperature;BME280_humidity;BME280_pressure;Samples;Min_cycle;Max_cycle;Signal;HPM_P1;HPM_P2
2023/12/15 00:01:04;;;;;;;7.50;6.20;;;11.30;62.10;;;;;;5050431;28;20255;-61
2023/12/15 00:03:29;;;;;;;7.80;6.33;;;11.30;62.40;;;;;;5044034;28;20664;-60
2023/12/15 00:05:57;;;;;;;8.10;6.30;;;11.20;62.80;;;;;;5040874;28;20441;-55
2023/12/15 00:08:23;;;;;;;10.07;6.40;;;11.20;62.80;;;;;;5048538;28;20220;-55
2023/12/15 00:10:49;;;;;;;9.33;6.77;;;11.30;62.90;;;;;;5044658;28;20499;-55
2023/12/15 00:13:14;;;;;;;6.43;5.40;;;11.20;63.10;;;;;;5048494;28;20600;-57
2023/12/15 00:15:40;;;;;;;7.43;5.23;;;11.00;64.00;;;;;;5049133;28;20180;-56
2023/12/15 00:18:05;;;;;;;7.50;5.30;;;10.80;64.70;;;;;;5042920;28;20189;-61
2023/12/15 00:20:31;;;;;;;7.97;5.40;;;10.90;64.80;;;;;;5047305;28;20618;-54
2023/12/15 00:22:56;;;;;;;8.73;6.30;;;10.90;64.50;;;;;;5049982;28;20947;-60
2023/12/15 00:25:22;;;;;;;7.37;5.10;;;10.90;64.60;;;;;;5048534;28;20219;-55
2023/12/15 00:27:48;;;;;;;8.43;5.67;;;10.90;64.70;;;;;;5049720;28;20536;-61
2023/12/15 00:30:14;;;;;;;6.80;5.20;;;10.80;64.70;;;;;;5050059;28;20240;-59
2023/12/15 00:32:40;;;;;;;6.70;5.10;;;10.80;65.00;;;;;;5047824;28;20528;-61
2023/12/15 00:35:06;;;;;;;8.50;5.60;;;10.80;65.00;;;;;;5048175;28;20431;-62
2023/12/15 00:37:32;;;;;;;9.30;5.90;;;10.60;65.60;;;;;;5046526;28;20186;-61
2023/12/15 00:39:57;;;;;;;7.60;5.60;;;10.40;66.60;;;;;;5048164;28;20489;-57
2023/12/15 00:42:23;;;;;;;8.27;5.43;;;10.40;66.70;;;;;;5048916;28;20192;-56
2023/12/15 00:44:49;;;;;;;10.10;5.33;;;10.30;67.20;;;;;;5048996;28;20195;-60
2023/12/15 00:47:14;;;;;;;10.23;6.30;;;10.20;67.70;;;;;;5048747;28;20548;-58
2023/12/15 00:49:40;;;;;;;11.50;5.70;;;10.10;68.50;;;;;;5046105;28;20205;-60
2023/12/15 00:52:06;;;;;;;9.77;6.20;;;10.30;68.70;;;;;;5042574;28;20196;-57
2023/12/15 00:54:32;;;;;;;10.57;6.67;;;10.30;67.80;;;;;;5049266;28;20423;-58
2023/12/15 00:56:57;;;;;;;11.13;7.03;;;10.10;68.10;;;;;;5047530;28;20259;-56
2023/12/15 00:59:23;;;;;;;10.00;6.70;;;10.20;68.10;;;;;;5042692;28;20307;-58
2023/12/15 01:01:49;;;;;;;9.00;5.93;;;10.10;68.50;;;;;;5047310;28;20184;-57
2023/12/15 01:04:14;;;;;;;11.50;7.23;;;10.30;68.20;;;;;;5048635;28;20185;-57
2023/12/15 01:06:40;;;;;;;9.67;6.40;;;10.40;67.80;;;;;;5047017;28;20185;-54
2023/12/15 01:09:06;;;;;;;9.83;6.40;;;10.30;67.50;;;;;;5047254;28;20303;-60
2023/12/15 01:11:31;;;;;;;10.10;6.70;;;10.40;67.50;;;;;;5041788;28;20217;-58
2023/12/15 01:13:57;;;;;;;9.30;6.63;;;10.30;67.20;;;;;;5046005;28;20447;-61
2023/12/15 01:16:23;;;;;;;8.30;5.70;;;10.20;67.20;;;;;;5040303;28;20611;-59
2023/12/15 01:18:48;;;;;;;8.80;6.77;;;10.40;67.00;;;;;;5045492;28;20237;-59
2023/12/15 01:21:14;;;;;;;11.33;6.67;;;10.40;66.60;;;;;;5042842;28;20235;-54
2023/12/15 01:23:39;;;;;;;8.57;5.90;;;10.60;66.10;;;;;;5048101;28;20227;-59
2023/12/15 01:26:05;;;;;;;10.40;6.30;;;10.60;65.70;;;;;;5046355;28;20185;-57
2023/12/15 01:28:31;;;;;;;9.00;6.40;;;10.50;65.70;;;;;;5047378;28;20185;-58
2023/12/15 01:30:56;;;;;;;9.03;7.20;;;10.50;65.90;;;;;;5049435;28;20581;-58
2023/12/15 01:33:22;;;;;;;11.07;6.07;;;10.60;65.80;;;;;;5045336;28;20275;-57
2023/12/15 01:35:48;;;;;;;9.53;6.13;;;10.60;65.50;;;;;;5045882;28;20243;-57
2023/12/15 01:38:13;;;;;;;10.80;6.97;;;10.70;65.10;;;;;;5044818;28;20189;-56
2023/12/15 01:40:39;;;;;;;9.23;7.17;;;10.70;64.90;;;;;;5045456;28;20278;-56
2023/12/15 01:43:04;;;;;;;9.20;6.03;;;10.80;64.60;;;;;;5048634;28;20255;-59
2023/12/15 01:45:30;;;;;;;10.03;6.73;;;10.80;64.40;;;;;;5043865;28;20247;-56
2023/12/15 01:47:56;;;;;;;9.57;6.10;;;10.70;64.30;;;;;;5046730;28;20226;-56
2023/12/15 01:50:21;;;;;;;9.10;6.47;;;10.80;64.40;;;;;;5042599;28;20213;-55
2023/12/15 01:52:47;;;;;;;10.83;7.63;;;10.70;64.40;;;;;;5045465;28;20282;-56
2023/12/15 01:55:12;;;;;;;9.63;6.90;;;10.80;64.50;;;;;;5046905;28;20267;-61
2023/12/15 01:57:38;;;;;;;11.17;6.90;;;10.90;64.20;;;;;;5046431;28;20185;-58
2023/12/15 02:00:07;;;;;;;9.53;6.17;;;10.90;63.80;;;;;;5044426;28;20221;-55
2023/12/15 02:02:33;;;;;;;10.70;7.30;;;11.00;63.70;;;;;;5046945;28;20193;-60
2023/12/15 02:05:00;;;;;;;10.00;7.17;;;10.90;63.50;;;;;;5047049;28;20984;-57
2023/12/15 02:07:25;;;;;;;9.37;6.57;;;10.80;63.80;;;;;;5046139;28;20446;-59
2023/12/15 02:09:51;;;;;;;10.50;6.13;;;10.50;64.10;;;;;;5043703;28;20809;-61
2023/12/15 02:12:16;;;;;;;9.77;6.90;;;10.50;64.90;;;;;;5045318;28;20192;-56
2023/12/15 02:14:43;;;;;;;11.93;6.77;;;10.30;65.00;;;;;;5045148;28;20189;-61
2023/12/15 02:17:11;;;;;;;8.00;5.90;;;10.50;65.10;;;;;;5043779;28;20193;-57
2023/12/15 02:19:36;;;;;;;8.47;6.10;;;10.40;65.40;;;;;;5042524;28;21029;-62
2023/12/15 02:22:02;;;;;;;9.33;6.60;;;10.30;65.40;;;;;;5047918;28;20451;-55
2023/12/15 02:24:27;;;;;;;10.90;6.70;;;10.30;65.60;;;;;;5043276;28;20188;-59
2023/12/15 02:26:53;;;;;;;13.90;7.47;;;10.20;66.10;;;;;;5047975;28;20183;-63
2023/12/15 02:29:19;;;;;;;9.10;6.07;;;10.30;66.30;;;;;;5045723;28;20704;-61
2023/12/15 02:31:44;;;;;;;9.00;5.50;;;10.40;65.90;;;;;;5045894;28;20194;-59
2023/12/15 02:34:10;;;;;;;9.07;5.93;;;10.50;65.50;;;;;;5045977;28;20207;-61
2023/12/15 02:36:35;;;;;;;7.77;5.67;;;10.50;65.20;;;;;;5045116;28;20201;-63
2023/12/15 02:39:02;;;;;;;7.70;5.53;;;10.60;64.90;;;;;;5044005;28;20209;-60
2023/12/15 02:41:31;;;;;;;10.03;6.93;;;10.70;64.40;;;;;;5041776;28;20232;-58
2023/12/15 02:43:57;;;;;;;12.03;7.30;;;10.80;64.00;;;;;;5041370;28;20435;-60
2023/12/15 02:46:23;;;;;;;9.60;6.23;;;10.90;63.80;;;;;;5041848;28;21078;-59
2023/12/15 02:48:49;;;;;;;8.47;6.37;;;10.90;63.40;;;;;;5040757;28;20205;-58
2023/12/15 02:51:27;;;;;;;8.40;6.57;;;11.00;63.20;;;;;;5044473;28;20267;-61
2023/12/15 02:53:53;;;;;;;9.97;6.17;;;11.00;63.10;;;;;;5045892;28;20199;-63
2023/12/15 02:56:19;;;;;;;10.97;6.40;;;11.00;63.00;;;;;;5046674;28;20824;-57
2023/12/15 02:58:44;;;;;;;8.63;6.37;;;11.00;62.90;;;;;;5046897;28;20455;-61
2023/12/15 03:01:10;;;;;;;9.50;6.17;;;11.10;62.60;;;;;;5047539;28;20218;-62
2023/12/15 03:03:36;;;;;;;10.07;6.60;;;11.10;62.60;;;;;;5049070;28;20212;-62
2023/12/15 03:06:02;;;;;;;9.20;6.23;;;11.00;62.40;;;;;;5049248;28;20602;-63
2023/12/15 03:08:28;;;;;;;10.30;5.90;;;11.10;62.20;;;;;;5048695;28;20464;-62
2023/12/15 03:10:57;;;;;;;8.50;6.20;;;11.10;62.10;;;;;;5051328;28;20470;-62
2023/12/15 03:13:28;;;;;;;11.37;7.10;;;11.10;61.90;;;;;;5049339;28;20224;-58
2023/12/15 03:15:54;;;;;;;9.00;5.80;;;11.20;62.00;;;;;;5048164;28;20454;-57
2023/12/15 03:18:19;;;;;;;8.23;5.53;;;11.10;62.00;;;;;;5046961;28;20439;-59
2023/12/15 03:20:45;;;;;;;10.00;6.63;;;11.20;62.20;;;;;;5048353;28;20982;-62
2023/12/15 03:23:10;;;;;;;8.53;6.10;;;11.10;62.30;;;;;;5047431;28;20271;-61
2023/12/15 03:25:36;;;;;;;10.43;6.50;;;11.10;62.50;;;;;;5048119;28;20193;-61
2023/12/15 03:28:02;;;;;;;8.63;6.17;;;11.10;62.70;;;;;;5048730;28;20196;-62
2023/12/15 03:30:27;;;;;;;6.37;5.30;;;11.10;62.30;;;;;;5045001;28;20215;-62
2023/12/15 03:32:53;;;;;;;7.83;6.00;;;11.10;62.60;;;;;;5047763;28;20888;-62
2023/12/15 03:35:18;;;;;;;9.07;6.70;;;11.10;62.60;;;;;;5047139;28;20710;-59
2023/12/15 03:37:45;;;;;;;7.50;5.33;;;11.10;62.70;;;;;;5047292;28;20184;-62
2023/12/15 03:40:11;;;;;;;6.40;5.40;;;11.00;62.70;;;;;;5050804;28;20255;-59
2023/12/15 03:42:37;;;;;;;9.30;6.43;;;11.00;62.90;;;;;;5049051;28;20446;-58
2023/12/15 03:45:04;;;;;;;7.60;5.77;;;11.00;62.80;;;;;;5051107;28;20497;-59
2023/12/15 03:47:29;;;;;;;8.13;5.87;;;11.10;62.70;;;;;;5047409;28;20185;-58
2023/12/15 03:49:55;;;;;;;8.40;6.13;;;11.10;62.80;;;;;;5049415;28;20891;-61
2023/12/15 03:52:20;;;;;;;7.97;6.70;;;11.10;62.90;;;;;;5044262;28;20219;-61
2023/12/15 03:54:46;;;;;;;6.97;5.30;;;11.10;62.90;;;;;;5048456;28;20235;-59
2023/12/15 03:57:11;;;;;;;9.57;6.23;;;11.10;62.80;;;;;;5050719;28;20188;-58
2023/12/15 03:59:40;;;;;;;12.40;6.30;;;11.10;62.90;;;;;;5048488;28;20355;-61
2023/12/15 04:02:06;;;;;;;7.83;6.10;;;11.10;63.00;;;;;;5051346;28;20192;-61
2023/12/15 04:04:34;;;;;;;7.70;6.07;;;11.10;63.00;;;;;;5044877;28;20584;-57
2023/12/15 04:07:00;;;;;;;8.30;5.13;;;11.10;63.00;;;;;;5047017;28;20694;-57
2023/12/15 04:09:25;;;;;;;15.33;6.83;;;11.10;63.20;;;;;;5049744;28;20489;-58
2023/12/15 04:11:51;;;;;;;9.53;5.67;;;11.10;63.30;;;;;;5049400;28;20181;-54
2023/12/15 04:14:17;;;;;;;6.90;5.33;;;11.10;63.10;;;;;;5048218;28;20265;-62
2023/12/15 04:16:43;;;;;;;10.30;5.60;;;11.10;63.20;;;;;;5042254;28;20189;-57
2023/12/15 04:19:09;;;;;;;7.53;5.70;;;11.10;63.20;;;;;;5045815;28;20528;-58
2023/12/15 04:21:34;;;;;;;8.37;6.20;;;11.10;63.20;;;;;;5048063;28;20215;-57
2023/12/15 04:24:00;;;;;;;9.73;6.80;;;11.10;63.20;;;;;;5047273;28;20212;-59
2023/12/15 04:26:25;;;;;;;7.83;5.40;;;11.10;63.30;;;;;;5046824;28;20189;-61
2023/12/15 04:28:52;;;;;;;9.33;6.07;;;11.10;63.40;;;;;;5048663;28;20212;-59
2023/12/15 04:31:17;;;;;;;8.77;5.93;;;11.10;63.40;;;;;;5046553;28;20188;-62
2023/12/15 04:33:43;;;;;;;9.83;6.27;;;11.10;63.50;;;;;;5046826;28;20443;-61
2023/12/15 04:36:09;;;;;;;9.50;6.13;;;11.10;63.40;;;;;;5042716;28;20260;-59
2023/12/15 04:38:35;;;;;;;10.03;6.67;;;11.10;63.30;;;;;;5048244;28;20193;-56
2023/12/15 04:41:01;;;;;;;8.17;5.87;;;11.10;63.30;;;;;;5047670;28;20552;-58
2023/12/15 04:43:27;;;;;;;7.80;5.77;;;11.10;63.30;;;;;;5047604;28;20518;-61
2023/12/15 04:45:52;;;;;;;9.27;6.53;;;11.10;63.40;;;;;;5048077;28;20518;-61
2023/12/15 04:48:18;;;;;;;7.00;5.70;;;11.10;63.40;;;;;;5044646;28;20189;-66
2023/12/15 04:50:44;;;;;;;6.90;5.10;;;11.10;63.50;;;;;;5046344;28;20208;-60
2023/12/15 04:53:09;;;;;;;7.77;6.03;;;11.10;63.40;;;;;;5046601;28;20704;-60
2023/12/15 04:55:35;;;;;;;8.20;5.40;;;11.10;63.20;;;;;;5045490;28;20192;-63
2023/12/15 04:58:00;;;;;;;7.30;6.07;;;11.10;63.20;;;;;;5043914;28;20679;-58
2023/12/15 05:00:26;;;;;;;8.43;6.40;;;11.10;63.20;;;;;;5045231;28;20247;-58
2023/12/15 05:02:51;;;;;;;9.57;6.37;;;11.20;63.30;;;;;;5047727;28;20206;-60
2023/12/15 05:05:18;;;;;;;7.70;5.87;;;11.10;63.40;;;;;;5042385;28;20192;-62
2023/12/15 05:07:44;;;;;;;6.73;5.73;;;11.20;63.50;;;;;;5046095;28;20327;-62
2023/12/15 05:10:09;;;;;;;7.40;6.27;;;11.20;63.60;;;;;;5046862;28;20553;-63
2023/12/15 05:12:36;;;;;;;11.13;5.80;;;11.10;63.50;;;;;;5047446;28;20180;-57
2023/12/15 05:15:04;;;;;;;7.60;6.53;;;11.20;63.50;;;;;;5049203;28;20187;-62
2023/12/15 05:17:31;;;;;;;9.00;6.27;;;11.20;63.30;;;;;;5043541;28;20438;-58
2023/12/15 05:19:56;;;;;;;8.90;6.87;;;11.20;63.30;;;;;;5043853;28;20893;-59
2023/12/15 05:22:22;;;;;;;7.10;5.40;;;11.20;63.30;;;;;;5044488;28;20520;-56
2023/12/15 05:24:48;;;;;;;6.73;5.50;;;11.20;63.50;;;;;;5048682;28;20191;-60
2023/12/15 05:27:14;;;;;;;7.03;5.97;;;11.20;63.50;;;;;;5047208;28;20679;-62
2023/12/15 05:29:45;;;;;;;8.00;5.87;;;11.20;63.60;;;;;;5043268;28;20285;-60
2023/12/15 05:32:11;;;;;;;6.17;4.77;;;11.20;63.70;;;;;;5044680;28;20497;-56
2023/12/15 05:34:37;;;;;;;9.20;6.00;;;11.20;63.60;;;;;;5044628;28;20450;-59
2023/12/15 05:37:03;;;;;;;9.03;5.40;;;11.20;63.40;;;;;;5048199;28;20443;-60
2023/12/15 05:39:28;;;;;;;10.10;5.33;;;11.20;63.40;;;;;;5046301;28;20209;-60
2023/12/15 05:41:54;;;;;;;7.73;6.07;;;11.20;63.50;;;;;;5047122;28;20216;-61
2023/12/15 05:44:19;;;;;;;6.87;5.10;;;11.30;63.30;;;;;;5048905;28;20189;-61
2023/12/15 05:46:45;;;;;;;10.20;6.60;;;11.20;63.10;;;;;;5045421;28;20183;-59
2023/12/15 05:49:11;;;;;;;6.73;5.60;;;11.20;63.30;;;;;;5047540;28;20205;-59
2023/12/15 05:51:37;;;;;;;5.50;4.83;;;11.20;63.60;;;;;;5043255;28;20782;-60
2023/12/15 05:54:03;;;;;;;7.73;5.57;;;11.20;63.60;;;;;;5046680;28;20193;-58
2023/12/15 05:56:29;;;;;;;7.77;6.07;;;11.20;63.50;;;;;;5047090;28;20593;-55
2023/12/15 05:58:56;;;;;;;8.07;6.20;;;11.20;64.40;;;;;;5047362;28;20541;-60
2023/12/15 06:01:22;;;;;;;9.70;6.20;;;11.20;63.70;;;;;;5047802;28;20844;-64
2023/12/15 06:03:47;;;;;;;6.70;6.00;;;11.30;63.80;;;;;;5047790;28;20446;-58
2023/12/15 06:06:13;;;;;;;18.53;11.17;;;11.20;63.80;;;;;;5047496;28;21169;-61
2023/12/15 06:08:39;;;;;;;12.00;7.27;;;11.20;63.80;;;;;;5046477;28;20200;-58
2023/12/15 06:11:04;;;;;;;12.33;8.23;;;11.20;64.00;;;;;;5047129;28;20188;-57
2023/12/15 06:13:30;;;;;;;11.13;8.67;;;11.20;64.00;;;;;;5038497;28;20196;-59
2023/12/15 06:15:56;;;;;;;10.30;7.07;;;11.20;64.00;;;;;;5043120;28;20192;-59
2023/12/15 06:18:21;;;;;;;7.40;5.73;;;11.20;64.10;;;;;;5044200;28;20674;-60
2023/12/15 06:20:47;;;;;;;6.73;5.90;;;11.30;64.40;;;;;;5044908;28;20224;-60
2023/12/15 06:23:13;;;;;;;11.20;6.37;;;11.30;64.20;;;;;;5046682;28;20566;-59
2023/12/15 06:25:38;;;;;;;9.23;6.27;;;11.30;64.10;;;;;;5048186;28;20672;-61
2023/12/15 06:28:08;;;;;;;9.80;6.97;;;11.50;64.70;;;;;;5046984;28;20225;-64
2023/12/15 06:30:36;;;;;;;8.43;6.23;;;11.80;65.10;;;;;;5046153;28;20227;-57
2023/12/15 06:33:02;;;;;;;8.17;6.03;;;12.00;64.10;;;;;;5044088;28;20435;-58
2023/12/15 06:35:27;;;;;;;6.57;5.47;;;12.20;63.90;;;;;;5044662;28;20450;-61
2023/12/15 06:37:53;;;;;;;10.43;8.10;;;12.30;62.60;;;;;;5042797;28;20446;-62
2023/12/15 06:40:19;;;;;;;8.67;7.27;;;12.50;61.80;;;;;;5043180;28;20270;-63
2023/12/15 06:42:44;;;;;;;9.17;6.67;;;12.50;60.60;;;;;;5043140;28;20187;-60
2023/12/15 06:45:10;;;;;;;8.10;6.53;;;12.60;60.00;;;;;;5039036;28;20660;-58
2023/12/15 06:47:39;;;;;;;8.50;6.00;;;12.50;59.60;;;;;;5040653;28;20738;-59
2023/12/15 06:50:08;;;;;;;6.87;6.17;;;12.60;60.20;;;;;;5041810;28;20291;-61
2023/12/15 06:52:35;;;;;;;8.17;6.27;;;12.70;59.80;;;;;;5042486;28;20506;-58
2023/12/15 06:55:01;;;;;;;9.73;6.30;;;12.60;58.80;;;;;;5041643;28;20482;-58
2023/12/15 06:57:26;;;;;;;9.47;5.90;;;12.60;59.00;;;;;;5047506;28;20431;-61
2023/12/15 06:59:52;;;;;;;6.20;5.60;;;12.70;59.10;;;;;;5041476;28;20320;-59
2023/12/15 07:02:18;;;;;;;6.77;5.63;;;12.80;59.20;;;;;;5046525;28;20667;-61
2023/12/15 07:04:43;;;;;;;6.67;5.50;;;12.90;59.20;;;;;;5042348;28;20196;-60
2023/12/15 07:07:09;;;;;;;6.17;5.57;;;13.00;58.90;;;;;;5044312;28;20187;-56
2023/12/15 07:09:35;;;;;;;7.47;5.57;;;13.00;58.10;;;;;;5046200;28;20304;-61
2023/12/15 07:12:02;;;;;;;7.37;6.00;;;13.00;58.00;;;;;;5041411;28;20189;-62
2023/12/15 07:14:28;;;;;;;8.43;6.10;;;13.00;57.90;;;;;;5041501;28;20580;-59
2023/12/15 07:16:54;;;;;;;7.33;6.50;;;13.00;57.80;;;;;;5043712;28;20501;-58
2023/12/15 07:19:20;;;;;;;8.20;7.40;;;13.00;57.80;;;;;;5044960;28;20472;-60
2023/12/15 07:21:45;;;;;;;7.60;6.60;;;13.00;58.00;;;;;;5041657;28;20188;-60
2023/12/15 07:24:11;;;;;;;7.00;6.00;;;12.90;58.20;;;;;;5040806;28;20505;-57
2023/12/15 07:26:38;;;;;;;7.20;6.27;;;13.00;58.30;;;;;;5041966;28;20198;-62
2023/12/15 07:29:03;;;;;;;7.47;5.80;;;13.00;58.20;;;;;;5041879;28;20208;-60
2023/12/15 07:31:29;;;;;;;7.40;5.87;;;13.00;58.40;;;;;;5035067;28;20512;-62
2023/12/15 07:33:54;;;;;;;8.87;6.40;;;13.00;58.50;;;;;;5046709;28;20188;-55
2023/12/15 07:36:20;;;;;;;7.00;6.00;;;13.00;58.50;;;;;;5043960;28;20200;-59
2023/12/15 07:38:46;;;;;;;7.90;6.17;;;13.00;58.20;;;;;;5038923;28;20208;-57
2023/12/15 07:41:12;;;;;;;17.27;11.90;;;13.00;57.90;;;;;;5045720;28;20710;-63
2023/12/15 07:43:38;;;;;;;12.57;9.77;;;13.00;58.30;;;;;;5044062;28;20467;-60
2023/12/15 07:46:04;;;;;;;10.37;8.37;;;12.90;58.60;;;;;;5046775;28;20188;-62
2023/12/15 07:48:29;;;;;;;7.93;6.97;;;13.00;58.20;;;;;;5045802;28;20330;-60
2023/12/15 07:50:55;;;;;;;7.70;6.63;;;13.00;58.30;;;;;;5044748;28;20997;-63
2023/12/15 07:53:21;;;;;;;9.87;7.10;;;13.00;58.10;;;;;;5050277;28;20189;-57
2023/12/15 07:55:46;;;;;;;7.30;6.00;;;13.10;58.20;;;;;;5046308;28;20652;-60
2023/12/15 07:58:12;;;;;;;7.10;5.90;;;13.10;58.30;;;;;;5045918;28;20184;-61
2023/12/15 08:00:37;;;;;;;8.57;7.43;;;13.10;58.00;;;;;;5046519;28;20407;-57
2023/12/15 08:03:03;;;;;;;8.93;6.77;;;13.10;58.40;;;;;;5049424;28;20268;-62
2023/12/15 08:05:29;;;;;;;9.40;6.77;;;13.20;58.10;;;;;;5048293;28;20239;-60
2023/12/15 08:07:54;;;;;;;9.13;7.30;;;13.30;57.80;;;;;;5048718;28;20963;-59
2023/12/15 08:10:20;;;;;;;7.70;6.43;;;13.30;57.60;;;;;;5046027;28;20212;-58
2023/12/15 08:12:46;;;;;;;8.83;7.00;;;13.30;57.60;;;;;;5047828;28;20195;-58
2023/12/15 08:15:11;;;;;;;7.00;6.07;;;13.30;57.30;;;;;;5044277;28;20184;-62
2023/12/15 08:17:37;;;;;;;6.70;5.60;;;13.30;57.20;;;;;;5043131;28;20192;-65
2023/12/15 08:20:03;;;;;;;6.73;4.70;;;13.30;57.20;;;;;;5047501;28;20224;-60
2023/12/15 08:22:28;;;;;;;7.67;6.20;;;13.30;57.60;;;;;;5047880;28;20243;-57
2023/12/15 08:24:54;;;;;;;5.63;4.97;;;13.30;57.90;;;;;;5044844;28;20200;-61
2023/12/15 08:27:20;;;;;;;5.57;4.50;;;13.30;57.80;;;;;;5050675;28;20181;-65
2023/12/15 08:29:46;;;;;;;6.40;5.53;;;13.40;57.50;;;;;;5045697;28;20212;-62
2023/12/15 08:32:12;;;;;;;5.80;5.20;;;13.30;57.20;;;;;;5049142;28;20504;-60
2023/12/15 08:34:38;;;;;;;5.90;5.00;;;13.20;57.20;;;;;;5042919;28;20192;-63
2023/12/15 08:37:03;;;;;;;6.23;4.97;;;13.20;57.10;;;;;;5044304;28;20188;-59
2023/12/15 08:39:29;;;;;;;6.43;5.80;;;13.10;57.50;;;;;;5040635;28;20839;-60
2023/12/15 08:41:55;;;;;;;5.23;4.73;;;13.20;57.60;;;;;;5049014;28;20196;-54
2023/12/15 08:44:20;;;;;;;8.83;5.03;;;13.20;57.60;;;;;;5046127;28;20604;-59
2023/12/15 08:46:46;;;;;;;6.97;4.37;;;13.00;57.80;;;;;;5046548;28;20641;-60
2023/12/15 08:49:11;;;;;;;7.87;5.23;;;13.00;57.90;;;;;;5050489;28;20199;-59
2023/12/15 08:51:37;;;;;;;6.90;6.20;;;13.00;57.90;;;;;;5046660;28;20220;-57
2023/12/15 08:54:02;;;;;;;7.77;5.13;;;13.00;57.80;;;;;;5049442;28;20373;-59
2023/12/15 08:56:28;;;;;;;6.53;5.37;;;13.00;57.90;;;;;;5046606;28;20192;-58
2023/12/15 08:58:54;;;;;;;6.23;5.63;;;13.00;58.60;;;;;;5043366;28;20296;-57
2023/12/15 09:01:19;;;;;;;5.40;4.67;;;13.00;57.90;;;;;;5047664;28;20212;-66
2023/12/15 09:03:45;;;;;;;7.07;6.10;;;13.10;57.90;;;;;;5047843;28;20219;-58
2023/12/15 09:06:11;;;;;;;5.70;5.10;;;13.20;57.90;;;;;;5048149;28;20230;-61
2023/12/15 09:08:38;;;;;;;6.33;5.73;;;13.20;57.70;;;;;;5044050;28;20192;-60
2023/12/15 09:11:05;;;;;;;8.40;5.50;;;13.10;57.30;;;;;;5042917;28;20435;-60
2023/12/15 09:13:32;;;;;;;10.33;4.93;;;13.20;57.60;;;;;;5046171;28;20949;-61
2023/12/15 09:15:57;;;;;;;5.87;5.10;;;13.20;57.70;;;;;;5046479;28;20837;-60
2023/12/15 09:18:23;;;;;;;10.10;6.17;;;13.20;57.80;;;;;;5046025;28;20431;-61
2023/12/15 09:20:48;;;;;;;13.70;6.30;;;13.30;57.80;;;;;;5044767;28;20220;-62
2023/12/15 09:23:14;;;;;;;5.47;4.97;;;13.40;57.60;;;;;;5044110;28;20249;-60
2023/12/15 09:25:40;;;;;;;6.53;5.90;;;13.40;57.60;;;;;;5046019;28;20450;-63
2023/12/15 09:28:06;;;;;;;7.93;5.80;;;13.40;57.60;;;;;;5038841;28;20190;-61
2023/12/15 09:30:32;;;;;;;7.90;6.00;;;13.40;57.70;;;;;;5045570;28;20204;-56
2023/12/15 09:32:58;;;;;;;6.33;5.73;;;13.40;57.60;;;;;;5045327;28;20185;-56
2023/12/15 09:35:24;;;;;;;7.40;6.20;;;13.40;57.70;;;;;;5045137;28;20450;-59
2023/12/15 09:37:50;;;;;;;6.97;5.97;;;13.50;57.60;;;;;;5046035;28;20671;-60
2023/12/15 09:40:21;;;;;;;8.27;5.90;;;13.50;57.50;;;;;;5046780;28;20483;-60
2023/12/15 09:42:47;;;;;;;7.00;6.00;;;13.60;57.50;;;;;;5045215;28;20176;-63
2023/12/15 09:45:12;;;;;;;6.53;5.90;;;13.60;57.50;;;;;;5041791;28;20434;-60
2023/12/15 09:47:44;;;;;;;6.80;5.87;;;13.50;56.90;;;;;;5040940;28;20181;-60
2023/12/15 09:50:12;;;;;;;6.90;6.20;;;13.40;57.50;;;;;;5047439;28;20200;-59
2023/12/15 09:52:41;;;;;;;6.20;5.60;;;13.40;57.90;;;;;;5048872;28;20439;-59
2023/12/15 09:55:08;;;;;;;7.00;6.00;;;13.50;58.30;;;;;;5046503;28;20435;-60
2023/12/15 09:57:34;;;;;;;7.17;5.97;;;13.50;58.10;;;;;;5046318;28;20447;-59
2023/12/15 10:00:00;;;;;;;8.60;5.63;;;13.50;57.70;;;;;;5044660;28;20471;-56
2023/12/15 10:02:26;;;;;;;8.30;6.83;;;13.50;57.60;;;;;;5046726;28;20447;-58
2023/12/15 10:04:51;;;;;;;6.00;5.50;;;13.60;57.60;;;;;;5045386;28;20197;-61
2023/12/15 10:07:17;;;;;;;8.00;7.20;;;13.60;57.60;;;;;;5046059;28;20212;-66
2023/12/15 10:09:42;;;;;;;7.27;6.47;;;13.60;57.60;;;;;;5042772;28;20267;-59
2023/12/15 10:12:11;;;;;;;6.67;6.07;;;13.60;57.80;;;;;;5042755;28;20195;-56
2023/12/15 10:14:38;;;;;;;7.37;6.20;;;13.60;58.00;;;;;;5043987;28;20653;-62
2023/12/15 10:17:10;;;;;;;7.03;5.70;;;13.60;58.00;;;;;;5046682;28;20458;-59
2023/12/15 10:19:36;;;;;;;6.60;5.90;;;13.60;57.90;;;;;;5042859;28;20517;-59
2023/12/15 10:22:02;;;;;;;7.77;6.10;;;13.70;58.00;;;;;;5046000;28;20931;-58
2023/12/15 10:24:28;;;;;;;11.07;6.63;;;13.80;57.90;;;;;;5044120;28;20564;-59
2023/12/15 10:26:54;;;;;;;7.27;6.33;;;13.80;57.60;;;;;;5049246;28;20467;-62
2023/12/15 10:29:20;;;;;;;6.67;6.00;;;13.80;57.40;;;;;;5043368;28;20625;-63
2023/12/15 10:31:49;;;;;;;11.00;6.73;;;13.90;57.40;;;;;;5044661;28;20679;-58
2023/12/15 10:34:15;;;;;;;8.57;6.80;;;13.90;57.40;;;;;;5046885;28;20617;-62
2023/12/15 10:36:44;;;;;;;6.57;5.53;;;13.90;57.50;;;;;;5048337;28;21015;-59
2023/12/15 10:39:13;;;;;;;8.33;7.27;;;14.00;57.50;;;;;;5045180;28;20208;-59
2023/12/15 10:41:40;;;;;;;8.33;7.43;;;14.00;57.40;;;;;;5048123;28;20478;-59
2023/12/15 10:44:06;;;;;;;7.70;6.90;;;14.00;57.00;;;;;;5042706;28;20478;-63
2023/12/15 10:46:33;;;;;;;7.60;6.27;;;14.00;57.10;;;;;;5047657;28;20455;-60
2023/12/15 10:49:00;;;;;;;7.10;6.40;;;14.10;56.80;;;;;;5046202;28;20463;-59
2023/12/15 10:51:26;;;;;;;8.23;6.80;;;14.00;56.70;;;;;;5044342;28;20853;-63
2023/12/15 10:53:56;;;;;;;7.90;7.00;;;14.10;56.70;;;;;;5048379;28;20438;-58
2023/12/15 10:56:23;;;;;;;8.73;7.00;;;14.00;56.60;;;;;;5045616;28;20784;-62
2023/12/15 10:58:49;;;;;;;8.30;7.17;;;14.10;56.80;;;;;;5043215;28;20430;-61
2023/12/15 11:01:16;;;;;;;8.67;6.80;;;14.10;57.10;;;;;;5046412;28;20523;-59
2023/12/15 11:03:43;;;;;;;7.50;6.70;;;14.00;57.10;;;;;;5045158;28;20426;-58
2023/12/15 11:06:09;;;;;;;7.17;5.83;;;14.00;57.00;;;;;;5049176;28;20964;-58
2023/12/15 11:08:35;;;;;;;7.70;6.90;;;14.00;56.80;;;;;;5046448;28;20419;-56
2023/12/15 11:11:05;;;;;;;9.70;6.37;;;14.00;56.70;;;;;;5044370;28;20434;-63
2023/12/15 11:13:50;;;;;;;12.90;7.27;;;14.00;56.90;;;;;;5046257;28;20177;-60
2023/12/15 11:16:22;;;;;;;10.53;6.27;;;13.90;56.30;;;;;;5048330;28;20514;-61
2023/12/15 11:18:52;;;;;;;7.93;6.40;;;13.90;56.40;;;;;;5046383;28;20465;-58
2023/12/15 11:21:19;;;;;;;11.13;6.07;;;13.90;56.40;;;;;;5048577;28;20481;-65
2023/12/15 11:24:05;;;;;;;7.43;6.63;;;13.90;56.40;;;;;;5031104;28;20412;-58
2023/12/15 11:26:33;;;;;;;7.47;6.30;;;13.90;56.60;;;;;;5050355;28;20427;-62
2023/12/15 11:29:19;;;;;;;7.83;6.10;;;13.80;56.60;;;;;;5050721;28;21100;-57
2023/12/15 11:31:45;;;;;;;8.63;7.07;;;13.50;56.50;;;;;;5051983;28;20513;-58
2023/12/15 11:34:37;;;;;;;7.00;6.23;;;13.50;56.60;;;;;;5050585;28;20557;-62
2023/12/15 11:37:03;;;;;;;7.43;6.40;;;13.60;57.00;;;;;;5050982;28;20185;-60
2023/12/15 11:39:30;;;;;;;7.30;5.83;;;13.40;57.40;;;;;;5046731;28;20446;-58
2023/12/15 11:41:56;;;;;;;9.00;6.73;;;13.40;57.60;;;;;;5044735;28;20193;-62
2023/12/15 11:44:27;;;;;;;11.13;6.50;;;13.50;57.50;;;;;;5050800;28;20458;-60
2023/12/15 11:46:53;;;;;;;9.57;8.00;;;13.60;57.40;;;;;;5043863;28;20195;-61
2023/12/15 11:49:23;;;;;;;11.20;6.50;;;13.60;57.90;;;;;;5046912;28;20512;-61
2023/12/15 11:51:50;;;;;;;9.43;7.30;;;13.60;58.00;;;;;;5042668;28;20422;-60
2023/12/15 11:54:15;;;;;;;8.20;6.70;;;13.70;57.80;;;;;;5049804;28;20520;-58
2023/12/15 11:56:41;;;;;;;8.20;6.90;;;13.60;57.40;;;;;;5049564;28;20472;-58
2023/12/15 11:59:06;;;;;;;9.33;5.90;;;13.70;57.40;;;;;;5047866;28;20204;-62
2023/12/15 12:01:38;;;;;;;6.70;5.07;;;13.70;57.50;;;;;;5048649;28;20224;-61
2023/12/15 12:04:04;;;;;;;6.23;5.50;;;13.70;57.80;;;;;;5049127;28;20173;-60
2023/12/15 12:06:32;;;;;;;5.60;4.20;;;13.60;57.80;;;;;;5045839;28;20447;-59
2023/12/15 12:08:58;;;;;;;5.67;4.80;;;13.60;57.90;;;;;;5045986;28;20475;-60
2023/12/15 12:11:23;;;;;;;5.73;5.23;;;13.60;58.00;;;;;;5047046;28;20436;-61
2023/12/15 12:13:57;;;;;;;4.47;4.07;;;13.60;57.50;;;;;;5040184;28;20443;-58
2023/12/15 12:16:22;;;;;;;5.47;3.33;;;13.40;57.60;;;;;;5042130;28;20284;-63
2023/12/15 12:18:49;;;;;;;5.00;3.90;;;13.40;57.90;;;;;;5047761;28;20858;-58
2023/12/15 12:21:16;;;;;;;4.13;3.70;;;13.50;57.90;;;;;;5047250;28;20288;-61
2023/12/15 12:23:42;;;;;;;3.80;3.20;;;13.30;57.60;;;;;;5049897;28;20920;-61
2023/12/15 12:26:07;;;;;;;3.87;3.40;;;13.30;57.70;;;;;;5047168;28;20447;-62
2023/12/15 12:28:50;;;;;;;3.53;3.23;;;13.40;57.60;;;;;;5043454;28;20962;-66
2023/12/15 12:31:16;;;;;;;4.37;2.87;;;13.40;57.30;;;;;;5047438;28;20197;-62
2023/12/15 12:33:41;;;;;;;4.33;3.10;;;13.30;57.50;;;;;;5050559;28;20445;-61
2023/12/15 12:36:08;;;;;;;3.63;3.17;;;13.30;57.70;;;;;;5049851;28;20195;-62
2023/12/15 12:38:34;;;;;;;4.00;3.00;;;13.20;57.80;;;;;;5049346;28;20566;-61
2023/12/15 12:41:03;;;;;;;4.10;2.73;;;13.20;58.00;;;;;;5048903;28;20483;-61